sensor_id;sensor_type;location;lat;lon;timestamp;P1;durP1;ratioP1;P2;durP2;ratioP2
29414;SDS011;20303;48.302;11.914;2023-03-11T00:04:23;1.55;;;0.70;;
29414;SDS011;20303;48.302;11.914;2023-03-11T00:14:24;2.55;;;0.70;;
29414;SDS011;20303;48.302;11.914;2023-03-11T00:24:25;1.45;;;0.60;;
29414;SDS011;20303;48.302;11.914;2023-03-11T00:34:26;0.90;;;0.70;;
29414;SDS011;20303;48.302;11.914;2023-03-11T00:44:28;0.93;;;0.60;;
29414;SDS011;20303;48.302;11.914;2023-03-11T00:54:29;1.98;;;0.70;;
29414;SDS011;20303;48.302;11.914;2023-03-11T01:04:30;1.02;;;0.50;;
29414;SDS011;20303;48.302;11.914;2023-03-11T01:14:31;1.48;;;0.60;;
29414;SDS011;20303;48.302;11.914;2023-03-11T01:24:32;3.58;;;0.60;;
29414;SDS011;20303;48.302;11.914;2023-03-11T01:34:33;0.82;;;0.63;;
29414;SDS011;20303;48.302;11.914;2023-03-11T01:44:35;0.80;;;0.50;;
29414;SDS011;20303;48.302;11.914;2023-03-11T01:54:36;0.57;;;0.40;;
29414;SDS011;20303;48.302;11.914;2023-03-11T02:04:38;0.80;;;0.50;;
29414;SDS011;20303;48.302;11.914;2023-03-11T02:14:41;0.80;;;0.50;;
29414;SDS011;20303;48.302;11.914;2023-03-11T02:34:49;0.95;;;0.52;;
29414;SDS011;20303;48.302;11.914;2023-03-11T02:44:56;0.90;;;0.50;;
29414;SDS011;20303;48.302;11.914;2023-03-11T02:55:08;1.15;;;0.52;;
29414;SDS011;20303;48.302;11.914;2023-03-11T03:05:10;0.73;;;0.50;;
29414;SDS011;20303;48.302;11.914;2023-03-11T03:15:12;1.10;;;0.50;;
29414;SDS011;20303;48.302;11.914;2023-03-11T03:25:15;0.60;;;0.50;;
29414;SDS011;20303;48.302;11.914;2023-03-11T03:35:16;0.68;;;0.50;;
29414;SDS011;20303;48.302;11.914;2023-03-11T03:45:17;2.05;;;0.47;;
29414;SDS011;20303;48.302;11.914;2023-03-11T03:55:18;1.25;;;0.50;;
29414;SDS011;20303;48.302;11.914;2023-03-11T04:05:19;0.52;;;0.40;;
29414;SDS011;20303;48.302;11.914;2023-03-11T04:15:20;0.52;;;0.40;;
29414;SDS011;20303;48.302;11.914;2023-03-11T04:25:21;0.73;;;0.50;;
29414;SDS011;20303;48.302;11.914;2023-03-11T04:35:22;0.80;;;0.55;;
29414;SDS011;20303;48.302;11.914;2023-03-11T04:45:24;0.50;;;0.40;;
29414;SDS011;20303;48.302;11.914;2023-03-11T04:55:25;0.90;;;0.40;;
29414;SDS011;20303;48.302;11.914;2023-03-11T05:05:26;2.83;;;0.60;;
29414;SDS011;20303;48.302;11.914;2023-03-11T05:15:27;0.70;;;0.40;;
29414;SDS011;20303;48.302;11.914;2023-03-11T05:25:30;1.52;;;0.60;;
29414;SDS011;20303;48.302;11.914;2023-03-11T05:35:31;1.45;;;0.50;;
29414;SDS011;20303;48.302;11.914;2023-03-11T05:45:32;0.70;;;0.40;;
29414;SDS011;20303;48.302;11.914;2023-03-11T05:55:33;1.20;;;0.40;;
29414;SDS011;20303;48.302;11.914;2023-03-11T06:05:34;0.82;;;0.50;;
29414;SDS011;20303;48.302;11.914;2023-03-11T06:15:35;0.50;;;0.40;;
29414;SDS011;20303;48.302;11.914;2023-03-11T06:25:37;1.40;;;0.50;;
29414;SDS011;20303;48.302;11.914;2023-03-11T06:35:38;1.13;;;0.47;;
29414;SDS011;20303;48.302;11.914;2023-03-11T06:45:39;1.13;;;0.40;;
29414;SDS011;20303;48.302;11.914;2023-03-11T06:55:40;0.75;;;0.52;;
29414;SDS011;20303;48.302;11.914;2023-03-11T07:05:41;0.40;;;0.40;;
29414;SDS011;20303;48.302;11.914;2023-03-11T07:15:42;0.40;;;0.40;;
29414;SDS011;20303;48.302;11.914;2023-03-11T07:25:47;1.50;;;0.60;;
29414;SDS011;20303;48.302;11.914;2023-03-11T07:35:48;1.02;;;0.50;;
29414;SDS011;20303;48.302;11.914;2023-03-11T07:45:49;2.63;;;0.70;;
29414;SDS011;20303;48.302;11.914;2023-03-11T07:55:54;4.20;;;0.80;;
29414;SDS011;20303;48.302;11.914;2023-03-11T08:05:55;1.48;;;0.68;;
29414;SDS011;20303;48.302;11.914;2023-03-11T08:15:56;1.50;;;0.60;;
29414;SDS011;20303;48.302;11.914;2023-03-11T08:25:58;4.00;;;0.90;;
29414;SDS011;20303;48.302;11.914;2023-03-11T08:36:12;4.82;;;0.85;;
29414;SDS011;20303;48.302;11.914;2023-03-11T08:46:16;5.15;;;0.82;;
29414;SDS011;20303;48.302;11.914;2023-03-11T08:56:25;4.90;;;1.08;;
29414;SDS011;20303;48.302;11.914;2023-03-11T09:06:26;5.63;;;1.00;;
29414;SDS011;20303;48.302;11.914;2023-03-11T09:16:29;6.07;;;0.88;;
29414;SDS011;20303;48.302;11.914;2023-03-11T09:26:30;3.67;;;1.00;;
29414;SDS011;20303;48.302;11.914;2023-03-11T09:36:32;3.35;;;1.00;;
29414;SDS011;20303;48.302;11.914;2023-03-11T09:57:30;2.28;;;0.88;;
29414;SDS011;20303;48.302;11.914;2023-03-11T10:07:33;1.83;;;0.90;;
29414;SDS011;20303;48.302;11.914;2023-03-11T10:37:57;2.97;;;0.80;;
29414;SDS011;20303;48.302;11.914;2023-03-11T10:48:07;1.50;;;0.70;;
29414;SDS011;20303;48.302;11.914;2023-03-11T10:58:14;2.05;;;0.98;;
29414;SDS011;20303;48.302;11.914;2023-03-11T11:08:27;2.90;;;0.85;;
29414;SDS011;20303;48.302;11.914;2023-03-11T11:18:30;4.72;;;0.75;;
29414;SDS011;20303;48.302;11.914;2023-03-11T11:28:36;23.05;;;2.13;;
29414;SDS011;20303;48.302;11.914;2023-03-11T11:38:37;41.88;;;3.30;;
29414;SDS011;20303;48.302;11.914;2023-03-11T11:58:49;9.98;;;1.42;;
29414;SDS011;20303;48.302;11.914;2023-03-11T12:19:18;3.73;;;1.20;;
29414;SDS011;20303;48.302;11.914;2023-03-11T12:29:32;2.42;;;0.88;;
29414;SDS011;20303;48.302;11.914;2023-03-11T12:39:37;2.33;;;0.98;;
29414;SDS011;20303;48.302;11.914;2023-03-11T13:20:47;4.82;;;1.20;;
29414;SDS011;20303;48.302;11.914;2023-03-11T13:41:02;6.72;;;1.20;;
29414;SDS011;20303;48.302;11.914;2023-03-11T13:51:26;5.75;;;1.17;;
29414;SDS011;20303;48.302;11.914;2023-03-11T14:01:36;3.40;;;1.10;;
29414;SDS011;20303;48.302;11.914;2023-03-11T14:11:38;6.32;;;1.17;;
29414;SDS011;20303;48.302;11.914;2023-03-11T14:21:49;13.63;;;3.75;;
29414;SDS011;20303;48.302;11.914;2023-03-11T14:31:50;17.88;;;3.53;;
29414;SDS011;20303;48.302;11.914;2023-03-11T14:42:34;22.20;;;4.82;;
29414;SDS011;20303;48.302;11.914;2023-03-11T15:13:18;22.67;;;7.55;;
29414;SDS011;20303;48.302;11.914;2023-03-11T15:23:23;3.67;;;1.90;;
29414;SDS011;20303;48.302;11.914;2023-03-11T15:33:30;8.60;;;2.63;;
29414;SDS011;20303;48.302;11.914;2023-03-11T15:43:33;8.18;;;2.67;;
29414;SDS011;20303;48.302;11.914;2023-03-11T15:53:44;6.82;;;2.40;;
29414;SDS011;20303;48.302;11.914;2023-03-11T16:03:46;7.00;;;2.58;;
29414;SDS011;20303;48.302;11.914;2023-03-11T16:13:47;7.85;;;2.40;;
29414;SDS011;20303;48.302;11.914;2023-03-11T16:23:48;4.32;;;1.73;;
29414;SDS011;20303;48.302;11.914;2023-03-11T16:33:49;4.60;;;1.80;;
29414;SDS011;20303;48.302;11.914;2023-03-11T16:43:50;4.05;;;1.80;;
29414;SDS011;20303;48.302;11.914;2023-03-11T16:53:52;3.97;;;1.70;;
29414;SDS011;20303;48.302;11.914;2023-03-11T17:03:53;3.80;;;1.60;;
29414;SDS011;20303;48.302;11.914;2023-03-11T17:13:54;2.83;;;1.50;;
29414;SDS011;20303;48.302;11.914;2023-03-11T17:23:55;7.25;;;1.42;;
29414;SDS011;20303;48.302;11.914;2023-03-11T17:33:57;6.90;;;1.80;;
29414;SDS011;20303;48.302;11.914;2023-03-11T17:43:58;3.53;;;1.70;;
29414;SDS011;20303;48.302;11.914;2023-03-11T17:54:00;4.30;;;1.60;;
29414;SDS011;20303;48.302;11.914;2023-03-11T18:04:01;3.13;;;1.50;;
29414;SDS011;20303;48.302;11.914;2023-03-11T18:14:08;3.30;;;1.73;;
29414;SDS011;20303;48.302;11.914;2023-03-11T18:24:11;7.38;;;1.90;;
29414;SDS011;20303;48.302;11.914;2023-03-11T18:34:12;4.25;;;1.88;;
29414;SDS011;20303;48.302;11.914;2023-03-11T18:44:14;5.30;;;2.00;;
29414;SDS011;20303;48.302;11.914;2023-03-11T18:54:16;4.75;;;1.98;;
29414;SDS011;20303;48.302;11.914;2023-03-11T19:04:17;6.85;;;2.22;;
29414;SDS011;20303;48.302;11.914;2023-03-11T19:14:18;4.00;;;2.17;;
29414;SDS011;20303;48.302;11.914;2023-03-11T19:24:19;4.18;;;2.10;;
29414;SDS011;20303;48.302;11.914;2023-03-11T19:34:20;5.85;;;2.10;;
29414;SDS011;20303;48.302;11.914;2023-03-11T19:44:21;3.40;;;1.98;;
29414;SDS011;20303;48.302;11.914;2023-03-11T19:54:22;4.38;;;2.30;;
29414;SDS011;20303;48.302;11.914;2023-03-11T20:04:23;5.35;;;2.30;;
29414;SDS011;20303;48.302;11.914;2023-03-11T20:14:24;4.28;;;2.20;;
29414;SDS011;20303;48.302;11.914;2023-03-11T20:24:25;4.93;;;1.95;;
29414;SDS011;20303;48.302;11.914;2023-03-11T20:34:26;3.20;;;2.00;;
29414;SDS011;20303;48.302;11.914;2023-03-11T20:44:28;3.70;;;2.10;;
29414;SDS011;20303;48.302;11.914;2023-03-11T20:54:29;3.63;;;2.20;;
29414;SDS011;20303;48.302;11.914;2023-03-11T21:04:30;4.70;;;2.10;;
29414;SDS011;20303;48.302;11.914;2023-03-11T21:14:31;4.18;;;2.20;;
29414;SDS011;20303;48.302;11.914;2023-03-11T21:24:32;3.22;;;2.20;;
29414;SDS011;20303;48.302;11.914;2023-03-11T21:34:33;3.35;;;2.40;;
29414;SDS011;20303;48.302;11.914;2023-03-11T21:44:34;2.80;;;2.10;;
29414;SDS011;20303;48.302;11.914;2023-03-11T21:54:35;2.72;;;2.03;;
29414;SDS011;20303;48.302;11.914;2023-03-11T22:04:47;2.78;;;2.20;;
29414;SDS011;20303;48.302;11.914;2023-03-11T22:14:51;4.65;;;2.40;;
29414;SDS011;20303;48.302;11.914;2023-03-11T22:24:52;3.22;;;2.47;;
29414;SDS011;20303;48.302;11.914;2023-03-11T22:34:53;4.78;;;2.50;;
29414;SDS011;20303;48.302;11.914;2023-03-11T22:44:54;4.38;;;2.78;;
29414;SDS011;20303;48.302;11.914;2023-03-11T22:54:55;3.65;;;2.75;;
29414;SDS011;20303;48.302;11.914;2023-03-11T23:04:56;4.80;;;3.08;;
29414;SDS011;20303;48.302;11.914;2023-03-11T23:14:57;4.43;;;3.10;;
29414;SDS011;20303;48.302;11.914;2023-03-11T23:25:00;4.32;;;3.15;;
29414;SDS011;20303;48.302;11.914;2023-03-11T23:35:01;4.60;;;3.10;;
29414;SDS011;20303;48.302;11.914;2023-03-11T23:45:03;4.93;;;3.22;;
29414;SDS011;20303;48.302;11.914;2023-03-11T23:55:04;4.68;;;3.47;;
